Terminal Aerodrome Forecast
Issued by NWS

Home | Current Version | Previous Version | Text Only | Print | Product List | Glossary On
Versions: 1 2 3 4 5 6 7 8 9 10 11 12 13 14 15 16 17 18 19 20 21 22 23 24 25 26 27 28 29 30 31 32 33 34 35 36 37 38 39 40 41 42 43 44 45 46 47 48 49 50
000
FTUS45 KBOU 210831 AAA
TAFAPA
TAF AMD
KAPA 210831Z 2109/2206 04006KT P6SM BKN009 OVC020
     FM211100 35006KT 2SM BR BKN006 OVC014
     FM211600 30006KT P6SM SCT007 BKN020
     FM211800 16010KT P6SM SCT025 BKN110
     FM212100 14012G20KT P6SM SCT025 BKN050 OVC100 PROB30 2122/2202
      -SHRA BKN025
     FM220200 14012G20KT 5SM -SHRA BR SCT012 OVC025
      TEMPO 2202/2205 3SM -RA BR BKN012
     FM220500 11010KT 3SM -RA BKN009 OVC020=

USA.gov is the U.S. government's official web portal to all federal, state and local government web resources and services.